createdAt,value
2017-07-26T00:00:25.315Z,1001.72
2017-07-26T00:00:51.476Z,1001.75
2017-07-26T00:01:17.655Z,1001.72
2017-07-26T00:01:43.914Z,1001.7
2017-07-26T00:02:10.061Z,1001.7
2017-07-26T00:02:36.234Z,1001.73
2017-07-26T00:03:02.436Z,1001.73
2017-07-26T00:03:28.613Z,1001.72
2017-07-26T00:03:54.744Z,1001.74
2017-07-26T00:04:20.952Z,1001.72
2017-07-26T00:04:47.112Z,1001.73
2017-07-26T00:05:13.292Z,1001.73
2017-07-26T00:05:39.449Z,1001.69
2017-07-26T00:06:05.660Z,1001.69
2017-07-26T00:06:31.892Z,1001.68
2017-07-26T00:06:58.082Z,1001.67
2017-07-26T00:07:24.290Z,1001.67
2017-07-26T00:07:50.445Z,1001.69
2017-07-26T00:08:16.640Z,1001.66
2017-07-26T00:08:42.827Z,1001.74
2017-07-26T00:09:09.004Z,1001.71
2017-07-26T00:09:35.132Z,1001.71
2017-07-26T00:10:01.273Z,1001.77
2017-07-26T00:10:27.500Z,1001.76
2017-07-26T00:10:53.849Z,1001.77
2017-07-26T00:11:20.024Z,1001.76
2017-07-26T00:11:46.150Z,1001.75
2017-07-26T00:12:12.375Z,1001.8
2017-07-26T00:12:38.556Z,1001.78
2017-07-26T00:13:04.699Z,1001.78
2017-07-26T00:13:30.860Z,1001.78
2017-07-26T00:13:57.010Z,1001.79
2017-07-26T00:14:23.271Z,1001.8
2017-07-26T00:14:49.418Z,1001.79
2017-07-26T00:15:15.568Z,1001.81
2017-07-26T00:15:41.762Z,1001.83
2017-07-26T00:16:07.935Z,1001.82
2017-07-26T00:16:34.084Z,1001.77
2017-07-26T00:17:00.244Z,1001.81
2017-07-26T00:17:26.365Z,1001.78
2017-07-26T00:17:52.506Z,1001.82
2017-07-26T00:18:18.676Z,1001.8
2017-07-26T00:18:44.854Z,1001.81
2017-07-26T00:19:10.982Z,1001.82
2017-07-26T00:19:37.127Z,1001.78
2017-07-26T00:20:03.330Z,1001.83
2017-07-26T00:20:29.525Z,1001.82
2017-07-26T00:20:55.716Z,1001.84
2017-07-26T00:21:21.887Z,1001.84
2017-07-26T00:21:48.041Z,1001.86
2017-07-26T00:22:14.180Z,1001.88
2017-07-26T00:22:40.301Z,1001.85
2017-07-26T00:23:06.459Z,1001.85
2017-07-26T00:23:32.653Z,1001.87
2017-07-26T00:23:58.764Z,1001.9
2017-07-26T00:24:24.951Z,1001.88
2017-07-26T00:24:51.095Z,1001.89
2017-07-26T00:25:17.324Z,1001.89
2017-07-26T00:25:43.476Z,1001.86
2017-07-26T00:26:09.622Z,1001.87
2017-07-26T00:26:35.809Z,1001.88
2017-07-26T00:27:01.966Z,1001.87
2017-07-26T00:27:28.077Z,1001.9
2017-07-26T00:27:54.234Z,1001.91
2017-07-26T00:28:20.398Z,1001.9
2017-07-26T00:28:46.568Z,1001.91
2017-07-26T00:29:12.714Z,1001.9
2017-07-26T00:29:38.906Z,1001.92
2017-07-26T00:30:05.056Z,1001.94
2017-07-26T00:30:31.244Z,1001.94
2017-07-26T00:30:57.419Z,1001.92
2017-07-26T00:31:23.601Z,1001.89
2017-07-26T00:31:49.733Z,1001.9
2017-07-26T00:32:15.845Z,1001.94
2017-07-26T00:32:42.058Z,1001.9
2017-07-26T00:33:08.281Z,1001.9
2017-07-26T00:33:34.426Z,1001.9
2017-07-26T00:34:00.538Z,1001.94
2017-07-26T00:34:26.737Z,1001.91
2017-07-26T00:34:52.922Z,1001.93
2017-07-26T00:35:19.033Z,1001.88
2017-07-26T00:35:45.229Z,1001.94
2017-07-26T00:36:11.403Z,1001.9
2017-07-26T00:36:37.599Z,1001.89
2017-07-26T00:37:03.776Z,1001.92
2017-07-26T00:37:29.948Z,1001.92
2017-07-26T00:37:56.120Z,1001.89
2017-07-26T00:38:22.366Z,1001.91
2017-07-26T00:38:48.507Z,1001.88
2017-07-26T00:39:14.703Z,1001.9
2017-07-26T00:39:40.858Z,1001.89
2017-07-26T00:40:07.006Z,1001.88
2017-07-26T00:40:33.130Z,1001.92
2017-07-26T00:40:59.262Z,1001.92
2017-07-26T00:41:25.380Z,1001.9
2017-07-26T00:41:51.567Z,1001.94
2017-07-26T00:42:17.684Z,1001.94
2017-07-26T00:42:43.839Z,1001.96
2017-07-26T00:43:09.994Z,1001.95
2017-07-26T00:43:36.137Z,1001.96
2017-07-26T00:44:02.296Z,1001.98
2017-07-26T00:44:28.455Z,1001.96
2017-07-26T00:44:54.658Z,1001.94
2017-07-26T00:45:20.808Z,1001.93
2017-07-26T00:45:46.970Z,1001.97
2017-07-26T00:46:13.142Z,1001.94
2017-07-26T00:46:39.322Z,1001.96
2017-07-26T00:47:05.516Z,1001.94
2017-07-26T00:47:31.630Z,1001.92
2017-07-26T00:47:57.801Z,1001.93
2017-07-26T00:48:23.966Z,1001.95
2017-07-26T00:48:50.122Z,1001.99
2017-07-26T00:49:16.298Z,1001.94
2017-07-26T00:49:42.487Z,1001.98
2017-07-26T00:50:08.671Z,1001.92
2017-07-26T00:50:34.813Z,1001.9
2017-07-26T00:51:01.001Z,1001.94
2017-07-26T00:51:27.195Z,1001.92
2017-07-26T00:51:53.395Z,1001.86
2017-07-26T00:52:19.574Z,1001.93
2017-07-26T00:52:45.789Z,1001.89
2017-07-26T00:53:11.947Z,1001.91
2017-07-26T00:53:38.068Z,1001.93
2017-07-26T00:54:04.262Z,1001.9
2017-07-26T00:54:30.391Z,1001.97
2017-07-26T00:54:56.552Z,1001.9
2017-07-26T00:55:22.722Z,1001.94
2017-07-26T00:55:48.897Z,1001.94
2017-07-26T00:56:15.055Z,1001.96
2017-07-26T00:56:41.202Z,1001.95
2017-07-26T00:57:07.417Z,1001.98
2017-07-26T00:57:33.576Z,1002
2017-07-26T00:57:59.693Z,1001.96
2017-07-26T00:58:25.859Z,1001.97
2017-07-26T00:58:51.999Z,1002.01
2017-07-26T00:59:18.124Z,1001.97
2017-07-26T00:59:44.360Z,1001.99
2017-07-26T01:00:10.594Z,1001.99
2017-07-26T01:00:36.743Z,1001.95
2017-07-26T01:01:02.875Z,1001.97
2017-07-26T01:01:29.050Z,1001.97
2017-07-26T01:01:55.224Z,1001.98
2017-07-26T01:02:21.418Z,1001.96
2017-07-26T01:02:47.635Z,1001.98
2017-07-26T01:03:13.749Z,1001.98
2017-07-26T01:03:39.906Z,1001.96
2017-07-26T01:04:06.079Z,1002.03
2017-07-26T01:04:32.245Z,1001.98
2017-07-26T01:04:58.359Z,1001.97
2017-07-26T01:05:24.501Z,1001.97
2017-07-26T01:05:50.634Z,1001.93
2017-07-26T01:06:16.758Z,1001.95
2017-07-26T01:06:42.899Z,1001.99
2017-07-26T01:07:09.059Z,1001.98
2017-07-26T01:07:35.281Z,1001.95
2017-07-26T01:08:01.452Z,1001.99
2017-07-26T01:08:27.641Z,1001.96
2017-07-26T01:08:53.838Z,1001.94
2017-07-26T01:09:20.010Z,1001.95
2017-07-26T01:09:46.130Z,1001.94
2017-07-26T01:10:12.304Z,1001.97
2017-07-26T01:10:38.459Z,1001.98
2017-07-26T01:11:04.649Z,1001.96
2017-07-26T01:11:30.849Z,1001.98
2017-07-26T01:11:57.037Z,1002
2017-07-26T01:12:23.199Z,1001.98
2017-07-26T01:12:49.313Z,1001.97
2017-07-26T01:13:15.498Z,1001.98
2017-07-26T01:13:41.629Z,1001.99
2017-07-26T01:14:07.801Z,1001.99
2017-07-26T01:14:33.955Z,1002.04
2017-07-26T01:15:00.105Z,1002.03
2017-07-26T01:15:26.293Z,1002.01
2017-07-26T01:15:52.420Z,1002.02
2017-07-26T01:16:18.565Z,1002.01
2017-07-26T01:16:44.685Z,1002
2017-07-26T01:17:10.813Z,1002.01
2017-07-26T01:17:36.961Z,1001.98
2017-07-26T01:18:03.137Z,1002.01
2017-07-26T01:18:29.296Z,1002.03
2017-07-26T01:18:55.470Z,1002.05
2017-07-26T01:19:21.648Z,1002.02
2017-07-26T01:19:47.810Z,1002.01
2017-07-26T01:20:13.964Z,1002
2017-07-26T01:20:40.122Z,1002.03
2017-07-26T01:21:06.269Z,1002
2017-07-26T01:21:32.443Z,1001.99
2017-07-26T01:21:58.609Z,1001.99
2017-07-26T01:22:24.761Z,1002
2017-07-26T01:22:50.965Z,1001.98
2017-07-26T01:23:17.225Z,1002.01
2017-07-26T01:23:43.346Z,1001.96
2017-07-26T01:24:09.487Z,1002.03
2017-07-26T01:24:35.678Z,1002.01
2017-07-26T01:25:01.831Z,1001.95
2017-07-26T01:25:27.973Z,1001.96
2017-07-26T01:25:54.132Z,1001.97
2017-07-26T01:26:20.299Z,1001.95
2017-07-26T01:26:46.497Z,1001.96
2017-07-26T01:27:12.670Z,1001.94
2017-07-26T01:27:38.812Z,1001.95
2017-07-26T01:28:04.969Z,1001.93
2017-07-26T01:28:31.224Z,1001.92
2017-07-26T01:28:57.364Z,1001.93
2017-07-26T01:29:23.558Z,1001.91
2017-07-26T01:29:49.717Z,1001.9
2017-07-26T01:30:15.944Z,1001.89
2017-07-26T01:30:42.094Z,1001.89
2017-07-26T01:31:08.317Z,1001.95
2017-07-26T01:31:34.495Z,1001.9
2017-07-26T01:32:00.645Z,1001.94
2017-07-26T01:32:26.778Z,1001.89
2017-07-26T01:32:52.966Z,1001.93
2017-07-26T01:33:19.105Z,1001.91
2017-07-26T01:33:45.303Z,1001.87
2017-07-26T01:34:11.482Z,1001.87
2017-07-26T01:34:37.625Z,1001.9
2017-07-26T01:35:03.846Z,1001.88
2017-07-26T01:35:30.003Z,1001.89
2017-07-26T01:35:56.170Z,1001.86
2017-07-26T01:36:22.416Z,1001.86
2017-07-26T01:36:48.542Z,1001.83
2017-07-26T01:37:14.662Z,1001.83
2017-07-26T01:37:40.813Z,1001.81
2017-07-26T01:38:07.014Z,1001.8
2017-07-26T01:38:33.210Z,1001.82
2017-07-26T01:38:59.367Z,1001.83
2017-07-26T01:39:25.511Z,1001.82
2017-07-26T01:39:51.666Z,1001.78
2017-07-26T01:40:17.795Z,1001.79
2017-07-26T01:40:43.904Z,1001.8
2017-07-26T01:41:10.094Z,1001.79
2017-07-26T01:41:36.281Z,1001.8
2017-07-26T01:42:02.432Z,1001.8
2017-07-26T01:42:28.577Z,1001.79
2017-07-26T01:42:54.732Z,1001.78
2017-07-26T01:43:20.890Z,1001.76
2017-07-26T01:43:47.021Z,1001.76
2017-07-26T01:44:13.157Z,1001.76
2017-07-26T01:44:39.370Z,1001.77
2017-07-26T01:45:05.537Z,1001.77
2017-07-26T01:45:31.650Z,1001.78
2017-07-26T01:45:57.796Z,1001.81
2017-07-26T01:46:23.995Z,1001.78
2017-07-26T01:46:50.112Z,1001.81
2017-07-26T01:47:16.251Z,1001.79
2017-07-26T01:47:42.417Z,1001.74
2017-07-26T01:48:08.595Z,1001.74
2017-07-26T01:48:34.780Z,1001.75
2017-07-26T01:49:00.981Z,1001.78
2017-07-26T01:49:27.163Z,1001.77
2017-07-26T01:49:53.354Z,1001.74
2017-07-26T01:50:19.539Z,1001.76
2017-07-26T01:50:45.680Z,1001.75
2017-07-26T01:51:11.877Z,1001.76
2017-07-26T01:51:37.996Z,1001.79
2017-07-26T01:52:04.164Z,1001.78
2017-07-26T01:52:30.330Z,1001.75
2017-07-26T01:52:56.554Z,1001.73
2017-07-26T01:53:22.750Z,1001.71
2017-07-26T01:53:48.878Z,1001.71
2017-07-26T01:54:15.026Z,1001.73
2017-07-26T01:54:41.195Z,1001.73
2017-07-26T01:55:07.378Z,1001.74
2017-07-26T01:55:33.526Z,1001.78
2017-07-26T01:55:59.689Z,1001.75
2017-07-26T01:56:25.881Z,1001.78
2017-07-26T01:56:52.054Z,1001.79
2017-07-26T01:57:18.181Z,1001.79
2017-07-26T01:57:44.373Z,1001.79
2017-07-26T01:58:10.543Z,1001.78
2017-07-26T01:58:36.663Z,1001.75
2017-07-26T01:59:02.856Z,1001.72
2017-07-26T01:59:29.001Z,1001.77
2017-07-26T01:59:55.161Z,1001.75
2017-07-26T02:00:21.392Z,1001.75
2017-07-26T02:00:47.518Z,1001.74
2017-07-26T02:01:13.713Z,1001.74
2017-07-26T02:01:39.882Z,1001.76
2017-07-26T02:02:06.072Z,1001.76
2017-07-26T02:02:32.266Z,1001.75
2017-07-26T02:02:58.410Z,1001.76
2017-07-26T02:03:24.560Z,1001.75
2017-07-26T02:03:50.690Z,1001.79
2017-07-26T02:04:16.867Z,1001.79
2017-07-26T02:04:43.044Z,1001.8
2017-07-26T02:05:09.234Z,1001.83
2017-07-26T02:05:35.423Z,1001.82
2017-07-26T02:06:01.646Z,1001.82
2017-07-26T02:06:27.840Z,1001.84
2017-07-26T02:06:53.990Z,1001.83
2017-07-26T02:07:20.190Z,1001.8
2017-07-26T02:07:46.396Z,1001.82
2017-07-26T02:08:12.535Z,1001.82
2017-07-26T02:08:38.736Z,1001.79
2017-07-26T02:09:04.888Z,1001.81
2017-07-26T02:09:31.062Z,1001.82
2017-07-26T02:09:57.217Z,1001.82
2017-07-26T02:10:23.408Z,1001.8
2017-07-26T02:10:49.557Z,1001.85
2017-07-26T02:11:15.769Z,1001.83
2017-07-26T02:11:41.909Z,1001.79
2017-07-26T02:12:08.142Z,1001.84
2017-07-26T02:12:34.259Z,1001.8
2017-07-26T02:13:00.427Z,1001.82
2017-07-26T02:13:26.594Z,1001.79
2017-07-26T02:13:52.750Z,1001.76
2017-07-26T02:14:18.893Z,1001.81
2017-07-26T02:14:45.077Z,1001.78
2017-07-26T02:15:11.274Z,1001.82
2017-07-26T02:15:37.384Z,1001.76
2017-07-26T02:16:03.543Z,1001.79
2017-07-26T02:16:29.728Z,1001.78
2017-07-26T02:16:55.821Z,1001.76
2017-07-26T02:17:21.941Z,1001.83
2017-07-26T02:17:48.099Z,1001.77
2017-07-26T02:18:14.250Z,1001.77
2017-07-26T02:18:40.429Z,1001.78
2017-07-26T02:19:06.650Z,1001.76
2017-07-26T02:19:32.768Z,1001.77
2017-07-26T02:19:58.911Z,1001.76
2017-07-26T02:20:25.074Z,1001.77
2017-07-26T02:20:51.231Z,1001.78
2017-07-26T02:21:17.368Z,1001.79
2017-07-26T02:21:43.491Z,1001.77
2017-07-26T02:22:09.666Z,1001.76
2017-07-26T02:22:35.860Z,1001.76
2017-07-26T02:23:02.046Z,1001.77
2017-07-26T02:23:28.157Z,1001.79
2017-07-26T02:23:54.386Z,1001.76
2017-07-26T02:24:20.573Z,1001.76
2017-07-26T02:24:46.747Z,1001.77
2017-07-26T02:25:12.935Z,1001.76
2017-07-26T02:25:39.105Z,1001.73
2017-07-26T02:26:05.211Z,1001.76
2017-07-26T02:26:31.431Z,1001.76
2017-07-26T02:26:57.656Z,1001.81
2017-07-26T02:27:23.800Z,1001.79
2017-07-26T02:27:49.927Z,1001.8
2017-07-26T02:28:16.129Z,1001.8
2017-07-26T02:28:42.321Z,1001.78
2017-07-26T02:29:08.512Z,1001.8
2017-07-26T02:29:34.654Z,1001.82
2017-07-26T02:30:00.838Z,1001.81
2017-07-26T02:30:27.003Z,1001.79
2017-07-26T02:30:53.238Z,1001.79
2017-07-26T02:31:19.442Z,1001.77
2017-07-26T02:31:45.601Z,1001.81
2017-07-26T02:32:11.817Z,1001.76
2017-07-26T02:32:38.017Z,1001.77
2017-07-26T02:33:04.177Z,1001.77
2017-07-26T02:33:30.355Z,1001.77
2017-07-26T02:33:56.514Z,1001.72
2017-07-26T02:34:22.690Z,1001.76
2017-07-26T02:34:48.894Z,1001.75
2017-07-26T02:35:15.098Z,1001.78
2017-07-26T02:35:41.238Z,1001.78
2017-07-26T02:36:07.354Z,1001.73
2017-07-26T02:36:33.521Z,1001.75
2017-07-26T02:36:59.706Z,1001.74
2017-07-26T02:37:25.880Z,1001.75
2017-07-26T02:37:52.075Z,1001.77
2017-07-26T02:38:18.292Z,1001.75
2017-07-26T02:38:44.468Z,1001.79
2017-07-26T02:39:10.653Z,1001.74
2017-07-26T02:39:36.816Z,1001.79
2017-07-26T02:40:02.985Z,1001.79
2017-07-26T02:40:29.173Z,1001.78
2017-07-26T02:40:55.370Z,1001.8
2017-07-26T02:41:21.597Z,1001.76
2017-07-26T02:41:47.814Z,1001.77
2017-07-26T02:42:14.001Z,1001.75
2017-07-26T02:42:40.152Z,1001.75
2017-07-26T02:43:06.319Z,1001.77
2017-07-26T02:43:32.546Z,1001.76
2017-07-26T02:43:58.727Z,1001.77
2017-07-26T02:44:24.944Z,1001.77
2017-07-26T02:44:51.087Z,1001.8
2017-07-26T02:45:17.270Z,1001.8
2017-07-26T02:45:43.459Z,1001.78
2017-07-26T02:46:09.580Z,1001.84
2017-07-26T02:46:35.782Z,1001.82
2017-07-26T02:47:02.010Z,1001.83
2017-07-26T02:47:28.223Z,1001.82
2017-07-26T02:47:54.366Z,1001.81
2017-07-26T02:48:20.530Z,1001.81
2017-07-26T02:48:46.719Z,1001.82
2017-07-26T02:49:12.914Z,1001.81
2017-07-26T02:49:39.037Z,1001.79
2017-07-26T02:50:05.279Z,1001.8
2017-07-26T02:50:31.445Z,1001.82
2017-07-26T02:50:57.663Z,1001.79
2017-07-26T02:51:23.892Z,1001.82
2017-07-26T02:51:50.059Z,1001.82
2017-07-26T02:52:16.210Z,1001.81
2017-07-26T02:52:42.385Z,1001.84
2017-07-26T02:53:08.572Z,1001.79
2017-07-26T02:53:34.765Z,1001.81
2017-07-26T02:54:00.904Z,1001.85
2017-07-26T02:54:27.124Z,1001.83
2017-07-26T02:54:53.284Z,1001.88
2017-07-26T02:55:19.457Z,1001.9
2017-07-26T02:56:15.471Z,1001.87
2017-07-26T02:56:41.605Z,1001.89
2017-07-26T02:57:07.759Z,1001.93
2017-07-26T02:57:33.847Z,1001.93
2017-07-26T02:58:00.007Z,1001.9
2017-07-26T02:58:26.168Z,1001.93
2017-07-26T02:58:52.281Z,1001.92
2017-07-26T02:59:18.379Z,1001.9
2017-07-26T02:59:44.538Z,1001.93
2017-07-26T03:00:10.653Z,1001.94
2017-07-26T03:00:36.799Z,1001.9
2017-07-26T03:01:02.933Z,1001.92
2017-07-26T03:01:29.049Z,1001.95
2017-07-26T03:01:55.186Z,1001.93
2017-07-26T03:02:21.378Z,1001.93
2017-07-26T03:02:47.555Z,1001.91
2017-07-26T03:03:13.692Z,1001.94
2017-07-26T03:03:39.826Z,1001.96
2017-07-26T03:04:06.009Z,1001.91
2017-07-26T03:04:32.098Z,1001.87
2017-07-26T03:04:58.254Z,1001.88
2017-07-26T03:05:24.415Z,1001.91
2017-07-26T03:05:50.531Z,1001.91
2017-07-26T03:06:16.674Z,1001.88
2017-07-26T03:06:42.835Z,1001.88
2017-07-26T03:07:08.978Z,1001.87
2017-07-26T03:07:35.135Z,1001.89
2017-07-26T03:08:01.276Z,1001.94
2017-07-26T03:08:27.426Z,1001.88
2017-07-26T03:08:53.586Z,1001.93
2017-07-26T03:09:19.746Z,1001.93
2017-07-26T03:09:45.874Z,1001.9
2017-07-26T03:10:12.035Z,1001.94
2017-07-26T03:10:38.151Z,1001.9
2017-07-26T03:11:04.294Z,1001.88
2017-07-26T03:11:30.482Z,1001.89
2017-07-26T03:11:56.601Z,1001.9
2017-07-26T03:12:22.743Z,1001.87
2017-07-26T03:12:48.874Z,1001.88
2017-07-26T03:13:15.042Z,1001.86
2017-07-26T03:13:41.176Z,1001.9
2017-07-26T03:14:07.342Z,1001.91
2017-07-26T03:14:33.463Z,1001.9
2017-07-26T03:14:59.595Z,1001.88
2017-07-26T03:15:25.768Z,1001.89
2017-07-26T03:15:51.882Z,1001.87
2017-07-26T03:16:18.047Z,1001.9
2017-07-26T03:16:44.195Z,1001.91
2017-07-26T03:17:10.359Z,1001.9
2017-07-26T03:17:36.571Z,1001.9
2017-07-26T03:18:02.725Z,1001.93
2017-07-26T03:18:28.876Z,1001.9
2017-07-26T03:18:54.995Z,1001.91
2017-07-26T03:19:21.160Z,1001.91
2017-07-26T03:19:47.270Z,1001.92
2017-07-26T03:20:13.421Z,1001.93
2017-07-26T03:20:39.536Z,1001.91
2017-07-26T03:21:05.667Z,1001.9
2017-07-26T03:21:31.794Z,1001.89
2017-07-26T03:21:57.909Z,1001.89
2017-07-26T03:22:24.091Z,1001.9
2017-07-26T03:22:50.197Z,1001.91
2017-07-26T03:23:16.351Z,1001.88
2017-07-26T03:23:42.476Z,1001.89
2017-07-26T03:24:08.619Z,1001.91
2017-07-26T03:24:34.751Z,1001.86
2017-07-26T03:25:00.906Z,1001.88
2017-07-26T03:25:27.022Z,1001.86
2017-07-26T03:25:53.198Z,1001.9
2017-07-26T03:26:19.356Z,1001.92
2017-07-26T03:26:45.492Z,1001.9
2017-07-26T03:27:11.645Z,1001.92
2017-07-26T03:27:37.806Z,1001.88
2017-07-26T03:28:03.947Z,1001.89
2017-07-26T03:28:30.064Z,1001.9
2017-07-26T03:28:56.227Z,1001.88
2017-07-26T03:29:22.379Z,1001.88
2017-07-26T03:29:48.534Z,1001.9
2017-07-26T03:30:14.672Z,1001.86
2017-07-26T03:30:40.849Z,1001.88
2017-07-26T03:31:07.067Z,1001.9
2017-07-26T03:31:33.259Z,1001.89
2017-07-26T03:31:59.356Z,1001.88
2017-07-26T03:32:25.488Z,1001.85
2017-07-26T03:32:51.582Z,1001.84
2017-07-26T03:33:17.723Z,1001.84
2017-07-26T03:33:43.832Z,1001.86
2017-07-26T03:34:09.979Z,1001.84
2017-07-26T03:34:36.144Z,1001.85
2017-07-26T03:35:02.276Z,1001.87
2017-07-26T03:35:28.420Z,1001.87
2017-07-26T03:35:54.553Z,1001.85
2017-07-26T03:36:20.696Z,1001.88
2017-07-26T03:36:46.808Z,1001.86
2017-07-26T03:37:12.946Z,1001.86
2017-07-26T03:37:39.065Z,1001.88
2017-07-26T03:38:05.206Z,1001.84
2017-07-26T03:38:31.309Z,1001.84
2017-07-26T03:38:57.437Z,1001.89
2017-07-26T03:39:23.625Z,1001.9
2017-07-26T03:39:49.774Z,1001.92
2017-07-26T03:40:15.909Z,1001.88
2017-07-26T03:40:42.026Z,1001.91
2017-07-26T03:41:08.150Z,1001.96
2017-07-26T03:41:34.264Z,1001.85
2017-07-26T03:42:00.422Z,1001.96
2017-07-26T03:42:26.549Z,1001.89
2017-07-26T03:42:52.709Z,1001.91
2017-07-26T03:43:18.861Z,1001.9
2017-07-26T03:43:45.018Z,1001.91
2017-07-26T03:44:11.129Z,1001.88
2017-07-26T03:44:37.257Z,1001.92
2017-07-26T03:45:03.393Z,1001.9
2017-07-26T03:45:29.532Z,1001.9
2017-07-26T03:45:55.655Z,1001.9
2017-07-26T03:46:21.790Z,1001.89
2017-07-26T03:46:47.885Z,1001.89
2017-07-26T03:47:13.998Z,1001.88
2017-07-26T03:47:40.165Z,1001.88
2017-07-26T03:48:06.318Z,1001.9
2017-07-26T03:48:32.431Z,1001.89
2017-07-26T03:48:58.589Z,1001.87
2017-07-26T03:49:24.716Z,1001.89
2017-07-26T03:49:50.831Z,1001.87
2017-07-26T03:50:17.011Z,1001.85
2017-07-26T03:50:43.116Z,1001.87
2017-07-26T03:51:09.253Z,1001.83
2017-07-26T03:51:35.375Z,1001.85
2017-07-26T03:52:01.520Z,1001.85
2017-07-26T03:52:27.681Z,1001.87
2017-07-26T03:52:53.809Z,1001.85
2017-07-26T03:53:19.952Z,1001.88
2017-07-26T03:53:46.109Z,1001.87
2017-07-26T03:54:12.298Z,1001.88
2017-07-26T03:54:38.462Z,1001.85
2017-07-26T03:55:04.588Z,1001.85
2017-07-26T03:55:30.750Z,1001.83
2017-07-26T03:55:56.841Z,1001.84
2017-07-26T03:56:22.964Z,1001.88
2017-07-26T03:56:49.099Z,1001.86
2017-07-26T03:57:15.246Z,1001.86
2017-07-26T03:57:41.353Z,1001.84
2017-07-26T03:58:07.537Z,1001.83
2017-07-26T03:58:33.663Z,1001.84
2017-07-26T03:58:59.824Z,1001.87
2017-07-26T03:59:25.941Z,1001.84
2017-07-26T03:59:52.084Z,1001.82
2017-07-26T04:00:18.244Z,1001.83
2017-07-26T04:00:44.338Z,1001.85
2017-07-26T04:01:10.501Z,1001.79
2017-07-26T04:01:36.609Z,1001.84
2017-07-26T04:02:02.755Z,1001.8
2017-07-26T04:02:28.893Z,1001.82
2017-07-26T04:02:55.048Z,1001.82
2017-07-26T04:03:21.195Z,1001.82
2017-07-26T04:03:47.329Z,1001.83
2017-07-26T04:04:13.471Z,1001.86
2017-07-26T04:04:39.561Z,1001.82
2017-07-26T04:05:05.696Z,1001.83
2017-07-26T04:05:31.791Z,1001.85
2017-07-26T04:05:57.931Z,1001.86
2017-07-26T04:06:24.037Z,1001.87
2017-07-26T04:06:50.164Z,1001.87
2017-07-26T04:07:16.275Z,1001.85
2017-07-26T04:07:42.408Z,1001.87
2017-07-26T04:08:08.538Z,1001.88
2017-07-26T04:08:34.659Z,1001.9
2017-07-26T04:09:00.809Z,1001.88
2017-07-26T04:09:26.896Z,1001.93
2017-07-26T04:09:53.052Z,1001.87
2017-07-26T04:10:19.181Z,1001.82
2017-07-26T04:10:45.272Z,1001.87
2017-07-26T04:11:11.424Z,1001.89
2017-07-26T04:11:37.529Z,1001.85
2017-07-26T04:12:03.668Z,1001.87
2017-07-26T04:12:29.816Z,1001.89
2017-07-26T04:12:55.950Z,1001.89
2017-07-26T04:13:22.063Z,1001.86
2017-07-26T04:13:48.233Z,1001.88
2017-07-26T04:14:14.326Z,1001.81
2017-07-26T04:14:40.429Z,1001.87
2017-07-26T04:15:06.564Z,1001.9
2017-07-26T04:15:32.702Z,1001.87
2017-07-26T04:15:58.849Z,1001.9
2017-07-26T04:16:24.982Z,1001.92
2017-07-26T04:16:51.101Z,1001.91
2017-07-26T04:17:17.267Z,1001.9
2017-07-26T04:17:43.428Z,1001.95
2017-07-26T04:18:09.573Z,1001.94
2017-07-26T04:18:35.712Z,1001.88
2017-07-26T04:19:01.877Z,1001.92
2017-07-26T04:19:28.058Z,1001.94
2017-07-26T04:19:54.187Z,1001.92
2017-07-26T04:20:20.277Z,1001.88
2017-07-26T04:20:46.444Z,1001.88
2017-07-26T04:21:12.578Z,1001.9
2017-07-26T04:21:38.723Z,1001.92
2017-07-26T04:22:04.863Z,1001.91
2017-07-26T04:22:30.970Z,1001.91
2017-07-26T04:22:57.121Z,1001.89
2017-07-26T04:23:23.291Z,1001.94
2017-07-26T04:23:49.449Z,1001.91
2017-07-26T04:24:15.574Z,1001.94
2017-07-26T04:24:41.738Z,1001.91
2017-07-26T04:25:07.863Z,1001.94
2017-07-26T04:25:34.003Z,1001.99
2017-07-26T04:26:00.141Z,1001.97
2017-07-26T04:26:26.318Z,1002
2017-07-26T04:26:52.458Z,1001.97
2017-07-26T04:27:18.644Z,1002
2017-07-26T04:27:44.848Z,1002
2017-07-26T04:28:10.968Z,1002.02
2017-07-26T04:28:37.070Z,1002.01
2017-07-26T04:29:03.232Z,1002.02
2017-07-26T04:29:29.365Z,1002
2017-07-26T04:29:55.516Z,1002.01
2017-07-26T04:30:21.649Z,1002.01
2017-07-26T04:30:47.764Z,1002.03
2017-07-26T04:31:13.910Z,1002.07
2017-07-26T04:31:40.071Z,1002.07
2017-07-26T04:32:06.240Z,1002.04
2017-07-26T04:32:32.355Z,1002.04
2017-07-26T04:32:58.523Z,1002.09
2017-07-26T04:33:24.647Z,1002.09
2017-07-26T04:33:50.736Z,1002.07
2017-07-26T04:34:16.891Z,1002.06
2017-07-26T04:34:43.071Z,1002.06
2017-07-26T04:35:09.185Z,1002.06
2017-07-26T04:35:35.318Z,1002.1
2017-07-26T04:36:01.451Z,1002.08
2017-07-26T04:36:27.545Z,1002.08
2017-07-26T04:36:53.725Z,1002.04
2017-07-26T04:37:19.867Z,1002.05
2017-07-26T04:37:46.023Z,1002.05
2017-07-26T04:38:12.150Z,1002.06
2017-07-26T04:38:38.287Z,1002.01
2017-07-26T04:39:04.420Z,1002.04
2017-07-26T04:39:30.659Z,1002.05
2017-07-26T04:39:56.794Z,1002.05
2017-07-26T04:40:22.945Z,1002.02
2017-07-26T04:40:49.050Z,1002.05
2017-07-26T04:41:15.189Z,1002
2017-07-26T04:41:41.308Z,1002.05
2017-07-26T04:42:07.457Z,1002.05
2017-07-26T04:42:33.660Z,1002.03
2017-07-26T04:42:59.794Z,1002.04
2017-07-26T04:43:25.952Z,1002.07
2017-07-26T04:43:52.078Z,1002.05
2017-07-26T04:44:18.268Z,1002.04
2017-07-26T04:44:44.357Z,1002.05
2017-07-26T04:45:10.501Z,1002.05
2017-07-26T04:45:36.633Z,1002.06
2017-07-26T04:46:02.806Z,1002.06
2017-07-26T04:46:28.944Z,1002.06
2017-07-26T04:46:55.137Z,1002.04
2017-07-26T04:47:21.287Z,1002.06
2017-07-26T04:47:47.420Z,1002.01
2017-07-26T04:48:13.561Z,1002
2017-07-26T04:48:39.708Z,1002.05
2017-07-26T04:49:05.817Z,1002.06
2017-07-26T04:49:31.941Z,1002.02
2017-07-26T04:49:58.121Z,1002.03
2017-07-26T04:50:24.264Z,1002
2017-07-26T04:50:50.359Z,1002
2017-07-26T04:51:16.476Z,1002.03
2017-07-26T04:51:42.610Z,1002.01
2017-07-26T04:52:08.817Z,1001.98
2017-07-26T04:52:34.931Z,1001.99
2017-07-26T04:53:01.087Z,1002.01
2017-07-26T04:53:27.255Z,1002.01
2017-07-26T04:53:53.448Z,1001.99
2017-07-26T04:54:19.568Z,1002.02
2017-07-26T04:54:45.686Z,1002
2017-07-26T04:55:11.814Z,1001.99
2017-07-26T04:55:37.939Z,1002
2017-07-26T04:56:04.054Z,1002.04
2017-07-26T04:56:30.188Z,1002
2017-07-26T04:56:56.295Z,1002.06
2017-07-26T04:57:22.435Z,1002.04
2017-07-26T04:57:48.579Z,1002.01
2017-07-26T04:58:14.714Z,1002.01
2017-07-26T04:58:40.850Z,1002.04
2017-07-26T04:59:06.980Z,1002.02
2017-07-26T04:59:33.146Z,1002.05
2017-07-26T04:59:59.250Z,1002.02
2017-07-26T05:00:25.357Z,1002.03
2017-07-26T05:00:51.443Z,1002.03
2017-07-26T05:01:17.644Z,1002.05
2017-07-26T05:01:43.778Z,1002.03
2017-07-26T05:02:09.874Z,1002.06
2017-07-26T05:02:36.017Z,1002.03
2017-07-26T05:03:02.178Z,1002.06
2017-07-26T05:03:28.300Z,1002.03
2017-07-26T05:03:54.388Z,1002.03
2017-07-26T05:04:20.574Z,1002.04
2017-07-26T05:04:46.747Z,1002.05
2017-07-26T05:05:12.883Z,1002.06
2017-07-26T05:05:39.051Z,1002.03
2017-07-26T05:06:05.223Z,1002.04
2017-07-26T05:06:31.356Z,1002.06
2017-07-26T05:06:57.476Z,1002.03
2017-07-26T05:07:23.564Z,1002
2017-07-26T05:07:49.701Z,1002.03
2017-07-26T05:08:15.855Z,1002.05
2017-07-26T05:08:41.941Z,1002.03
2017-07-26T05:09:08.075Z,1002.07
2017-07-26T05:09:34.228Z,1002.04
2017-07-26T05:10:00.357Z,1002.03
2017-07-26T05:10:26.478Z,1002.07
2017-07-26T05:10:52.619Z,1002.07
2017-07-26T05:11:18.757Z,1002.03
2017-07-26T05:11:44.879Z,1002.01
2017-07-26T05:12:10.993Z,1002.04
2017-07-26T05:12:37.122Z,1002.04
2017-07-26T05:13:03.275Z,1002.04
2017-07-26T05:13:29.391Z,1002.03
2017-07-26T05:13:55.545Z,1002.01
2017-07-26T05:14:21.705Z,1002.05
2017-07-26T05:14:47.862Z,1002.02
2017-07-26T05:15:14.016Z,1002
2017-07-26T05:15:40.177Z,1002
2017-07-26T05:16:06.320Z,1002.02
2017-07-26T05:16:32.441Z,1001.97
2017-07-26T05:16:58.574Z,1002.02
2017-07-26T05:17:24.694Z,1002.05
2017-07-26T05:17:50.808Z,1002.02
2017-07-26T05:18:17.049Z,1002.02
2017-07-26T05:18:43.154Z,1002.06